Jaca, Aragón

latitud = 42° 34' 44''N | longitud = 000° 32' 49''W
823 metros sobre el nivel del mar | datos mensuales

Fecha, hora, temperatura, viento dirección y velocidad, humedad y presión.

  • 16-08-2018 02:00:00 | 17.20°C | Nordeste |7.00 km/h | 65.00% | 0.00 hPa
  • 16-08-2018 01:00:00 | 17.70°C | Nordeste |10.00 km/h | 64.00% | 0.00 hPa
  • 16-08-2018 00:00:00 | 18.80°C | Nordeste |9.00 km/h | 61.00% | 0.00 hPa
  • 15-08-2018 23:00:00 | 19.60°C | Nordeste |13.00 km/h | 58.00% | 0.00 hPa
  • 15-08-2018 22:00:00 | 21.80°C | Nordeste |12.00 km/h | 51.00% | 0.00 hPa
  • 15-08-2018 21:00:00 | 25.00°C | Oeste |4.00 km/h | 31.00% | 0.00 hPa
  • 15-08-2018 20:00:00 | 27.50°C | Oeste |5.00 km/h | 31.00% | 0.00 hPa
  • 15-08-2018 19:00:00 | 30.10°C | Noroeste |8.00 km/h | 28.00% | 0.00 hPa
  • 15-08-2018 18:00:00 | 30.60°C | Oeste |3.00 km/h | 28.00% | 0.00 hPa
  • 15-08-2018 17:00:00 | 30.40°C | Noroeste |6.00 km/h | 28.00% | 0.00 hPa
  • 15-08-2018 16:00:00 | 29.70°C | Oeste |6.00 km/h | 28.00% | 0.00 hPa
  • 15-08-2018 15:00:00 | 29.60°C | Norte |3.00 km/h | 29.00% | 0.00 hPa
  • 15-08-2018 14:00:00 | 27.20°C | Noroeste |7.00 km/h | 32.00% | 0.00 hPa
  • 15-08-2018 13:00:00 | 25.80°C | Noroeste |6.00 km/h | 36.00% | 0.00 hPa
  • 15-08-2018 12:00:00 | 23.60°C | Oeste |3.00 km/h | 40.00% | 0.00 hPa
  • 15-08-2018 11:00:00 | 20.40°C | Calma |0.00 km/h | 46.00% | 0.00 hPa
  • 15-08-2018 10:00:00 | 16.90°C | Calma |0.00 km/h | 59.00% | 0.00 hPa
  • 15-08-2018 09:00:00 | 13.00°C | Calma |0.00 km/h | 72.00% | 0.00 hPa
  • 15-08-2018 08:00:00 | 10.60°C | Nordeste |3.00 km/h | 79.00% | 0.00 hPa
  • 15-08-2018 07:00:00 | 10.50°C | Nordeste |5.00 km/h | 79.00% | 0.00 hPa
  • 15-08-2018 06:00:00 | 11.00°C | Nordeste |2.00 km/h | 77.00% | 0.00 hPa
  • 15-08-2018 05:00:00 | 11.30°C | Calma |0.00 km/h | 76.00% | 0.00 hPa
  • 15-08-2018 04:00:00 | 11.60°C | Calma |0.00 km/h | 74.00% | 0.00 hPa
  • 15-08-2018 03:00:00 | 12.00°C | Calma |0.00 km/h | 73.00% | 0.00 hPa